sensor_id;sensor_type;location;lat;lon;timestamp;pressure;altitude;pressure_sealevel;temperature;humidity
7297;BME280;40758;54.038;11.684;2023-05-01T00:00:26;101976.94;;;-0.27;79.88
7297;BME280;40758;54.038;11.684;2023-05-01T00:02:53;101972.06;;;-0.33;79.70
7297;BME280;40758;54.038;11.684;2023-05-01T00:05:20;101972.31;;;-0.13;81.25
7297;BME280;40758;54.038;11.684;2023-05-01T00:07:47;101967.59;;;-0.10;80.98
7297;BME280;40758;54.038;11.684;2023-05-01T00:10:13;101961.03;;;-0.17;80.58
7297;BME280;40758;54.038;11.684;2023-05-01T00:12:40;101967.59;;;-0.21;80.32
7297;BME280;40758;54.038;11.684;2023-05-01T00:15:07;101958.38;;;-0.39;79.89
7297;BME280;40758;54.038;11.684;2023-05-01T00:17:34;101942.84;;;-0.34;80.61
7297;BME280;40758;54.038;11.684;2023-05-01T00:20:01;101950.94;;;-0.36;80.34
7297;BME280;40758;54.038;11.684;2023-05-01T00:22:30;101941.03;;;-0.45;80.20
7297;BME280;40758;54.038;11.684;2023-05-01T00:24:57;101948.53;;;-0.50;80.49
7297;BME280;40758;54.038;11.684;2023-05-01T00:27:24;101939.53;;;-0.60;80.45
7297;BME280;40758;54.038;11.684;2023-05-01T00:29:52;101944.00;;;-0.72;80.22
7297;BME280;40758;54.038;11.684;2023-05-01T00:32:20;101942.94;;;-0.69;80.78
7297;BME280;40758;54.038;11.684;2023-05-01T00:34:47;101946.94;;;-0.75;80.67
7297;BME280;40758;54.038;11.684;2023-05-01T00:37:14;101928.72;;;-0.70;81.59
7297;BME280;40758;54.038;11.684;2023-05-01T00:39:43;101934.22;;;-0.49;81.91
7297;BME280;40758;54.038;11.684;2023-05-01T00:42:09;101913.34;;;-0.55;81.91
7297;BME280;40758;54.038;11.684;2023-05-01T00:44:36;101893.97;;;-0.46;82.56
7297;BME280;40758;54.038;11.684;2023-05-01T00:47:03;101923.06;;;-0.20;82.69
7297;BME280;40758;54.038;11.684;2023-05-01T00:49:30;101935.78;;;-0.24;82.02
7297;BME280;40758;54.038;11.684;2023-05-01T00:51:58;101898.06;;;-0.53;81.53
7297;BME280;40758;54.038;11.684;2023-05-01T00:54:25;101912.75;;;-0.36;82.12
7297;BME280;40758;54.038;11.684;2023-05-01T00:56:53;101920.38;;;-0.20;82.40
7297;BME280;40758;54.038;11.684;2023-05-01T00:59:20;101915.53;;;-0.15;82.55
7297;BME280;40758;54.038;11.684;2023-05-01T01:01:47;101915.50;;;-0.04;83.06
7297;BME280;40758;54.038;11.684;2023-05-01T01:14:14;101897.56;;;-0.24;82.19
7297;BME280;40758;54.038;11.684;2023-05-01T01:16:44;101897.94;;;-0.29;82.32
7297;BME280;40758;54.038;11.684;2023-05-01T01:22:20;101901.84;;;-0.33;82.66
7297;BME280;40758;54.038;11.684;2023-05-01T01:37:01;101887.50;;;-0.32;83.13
7297;BME280;40758;54.038;11.684;2023-05-01T01:39:13;101885.13;;;-0.58;82.44
7297;BME280;40758;54.038;11.684;2023-05-01T01:41:44;101884.50;;;-0.61;82.91
7297;BME280;40758;54.038;11.684;2023-05-01T01:44:15;101882.31;;;-0.67;82.77
7297;BME280;40758;54.038;11.684;2023-05-01T01:46:47;101881.19;;;-0.87;82.76
7297;BME280;40758;54.038;11.684;2023-05-01T01:49:19;101884.94;;;-1.01;82.40
7297;BME280;40758;54.038;11.684;2023-05-01T01:51:51;101880.31;;;-0.99;83.09
7297;BME280;40758;54.038;11.684;2023-05-01T01:54:24;101885.53;;;-1.09;83.01
7297;BME280;40758;54.038;11.684;2023-05-01T01:56:52;101877.00;;;-1.25;82.85
7297;BME280;40758;54.038;11.684;2023-05-01T01:59:22;101872.59;;;-1.37;82.79
7297;BME280;40758;54.038;11.684;2023-05-01T02:01:50;101875.97;;;-1.46;82.66
7297;BME280;40758;54.038;11.684;2023-05-01T02:04:18;101881.69;;;-1.28;83.35
7297;BME280;40758;54.038;11.684;2023-05-01T02:06:46;101875.16;;;-1.36;83.49
7297;BME280;40758;54.038;11.684;2023-05-01T02:09:15;101874.13;;;-1.46;83.47
7297;BME280;40758;54.038;11.684;2023-05-01T02:11:45;101872.25;;;-1.32;83.93
7297;BME280;40758;54.038;11.684;2023-05-01T02:14:14;101864.91;;;-1.18;84.54
7297;BME280;40758;54.038;11.684;2023-05-01T02:16:42;101857.75;;;-1.17;84.29
7297;BME280;40758;54.038;11.684;2023-05-01T02:19:10;101874.00;;;-1.20;83.95
7297;BME280;40758;54.038;11.684;2023-05-01T02:21:39;101864.78;;;-1.27;84.54
7297;BME280;40758;54.038;11.684;2023-05-01T02:24:07;101845.59;;;-1.44;83.78
7297;BME280;40758;54.038;11.684;2023-05-01T02:26:41;101856.63;;;-1.37;83.85
7297;BME280;40758;54.038;11.684;2023-05-01T02:29:09;101856.97;;;-1.42;83.46
7297;BME280;40758;54.038;11.684;2023-05-01T02:31:38;101841.22;;;-1.34;84.29
7297;BME280;40758;54.038;11.684;2023-05-01T02:34:05;101845.19;;;-1.15;85.02
7297;BME280;40758;54.038;11.684;2023-05-01T02:36:32;101840.56;;;-1.02;85.11
7297;BME280;40758;54.038;11.684;2023-05-01T02:39:00;101847.38;;;-0.98;84.95
7297;BME280;40758;54.038;11.684;2023-05-01T02:41:27;101841.06;;;-0.97;84.72
7297;BME280;40758;54.038;11.684;2023-05-01T02:44:01;101842.63;;;-1.05;84.81
7297;BME280;40758;54.038;11.684;2023-05-01T02:46:32;101830.97;;;-1.27;84.15
7297;BME280;40758;54.038;11.684;2023-05-01T02:49:02;101838.72;;;-1.24;84.57
7297;BME280;40758;54.038;11.684;2023-05-01T02:51:30;101828.16;;;-1.37;84.24
7297;BME280;40758;54.038;11.684;2023-05-01T02:53:58;101822.19;;;-1.40;84.46
7297;BME280;40758;54.038;11.684;2023-05-01T02:56:27;101823.81;;;-1.38;84.81
7297;BME280;40758;54.038;11.684;2023-05-01T02:58:54;101824.31;;;-1.32;84.78
7297;BME280;40758;54.038;11.684;2023-05-01T03:01:22;101825.53;;;-1.25;85.34
7297;BME280;40758;54.038;11.684;2023-05-01T03:03:51;101832.78;;;-1.27;85.15
7297;BME280;40758;54.038;11.684;2023-05-01T03:06:18;101818.13;;;-1.33;85.01
7297;BME280;40758;54.038;11.684;2023-05-01T03:08:45;101792.88;;;-1.51;85.20
7297;BME280;40758;54.038;11.684;2023-05-01T03:11:13;101809.38;;;-1.35;85.22
7297;BME280;40758;54.038;11.684;2023-05-01T03:13:41;101797.00;;;-1.47;84.93
7297;BME280;40758;54.038;11.684;2023-05-01T03:16:08;101800.78;;;-1.39;85.38
7297;BME280;40758;54.038;11.684;2023-05-01T03:18:34;101793.16;;;-1.43;85.21
7297;BME280;40758;54.038;11.684;2023-05-01T03:21:03;101803.22;;;-1.36;85.17
7297;BME280;40758;54.038;11.684;2023-05-01T03:23:30;101800.66;;;-1.37;85.25
7297;BME280;40758;54.038;11.684;2023-05-01T03:25:57;101799.31;;;-1.43;85.06
7297;BME280;40758;54.038;11.684;2023-05-01T03:28:24;101800.38;;;-1.45;84.81
7297;BME280;40758;54.038;11.684;2023-05-01T03:30:51;101785.25;;;-1.56;85.15
7297;BME280;40758;54.038;11.684;2023-05-01T03:33:19;101798.78;;;-1.59;84.71
7297;BME280;40758;54.038;11.684;2023-05-01T03:35:46;101800.94;;;-1.64;85.05
7297;BME280;40758;54.038;11.684;2023-05-01T03:38:13;101789.31;;;-1.63;85.12
7297;BME280;40758;54.038;11.684;2023-05-01T03:40:40;101792.47;;;-1.69;84.93
7297;BME280;40758;54.038;11.684;2023-05-01T03:43:06;101783.03;;;-1.73;85.00
7297;BME280;40758;54.038;11.684;2023-05-01T03:45:34;101782.34;;;-1.53;85.71
7297;BME280;40758;54.038;11.684;2023-05-01T03:48:01;101784.28;;;-1.55;85.45
7297;BME280;40758;54.038;11.684;2023-05-01T03:50:31;101774.47;;;-1.54;85.58
7297;BME280;40758;54.038;11.684;2023-05-01T03:52:59;101781.75;;;-1.56;85.62
7297;BME280;40758;54.038;11.684;2023-05-01T03:55:26;101769.00;;;-1.64;84.97
7297;BME280;40758;54.038;11.684;2023-05-01T03:57:54;101769.75;;;-1.62;85.35
7297;BME280;40758;54.038;11.684;2023-05-01T04:00:21;101778.69;;;-1.63;85.06
7297;BME280;40758;54.038;11.684;2023-05-01T04:02:48;101760.00;;;-1.74;85.23
7297;BME280;40758;54.038;11.684;2023-05-01T04:05:15;101772.63;;;-1.65;85.33
7297;BME280;40758;54.038;11.684;2023-05-01T04:07:42;101771.94;;;-1.56;84.94
7297;BME280;40758;54.038;11.684;2023-05-01T04:10:09;101772.06;;;-1.46;85.78
7297;BME280;40758;54.038;11.684;2023-05-01T04:12:36;101774.16;;;-1.39;85.62
7297;BME280;40758;54.038;11.684;2023-05-01T04:15:02;101751.72;;;-1.47;85.58
7297;BME280;40758;54.038;11.684;2023-05-01T04:17:30;101767.03;;;-1.27;85.66
7297;BME280;40758;54.038;11.684;2023-05-01T04:19:57;101771.50;;;-1.27;85.59
7297;BME280;40758;54.038;11.684;2023-05-01T04:22:24;101763.50;;;-1.16;85.53
7297;BME280;40758;54.038;11.684;2023-05-01T04:24:51;101761.09;;;-1.08;85.79
7297;BME280;40758;54.038;11.684;2023-05-01T04:27:18;101759.50;;;-0.99;85.81
7297;BME280;40758;54.038;11.684;2023-05-01T04:29:45;101749.78;;;-0.78;86.29
7297;BME280;40758;54.038;11.684;2023-05-01T04:32:11;101752.09;;;-0.30;87.14
7297;BME280;40758;54.038;11.684;2023-05-01T04:34:38;101752.38;;;-0.01;86.75
7297;BME280;40758;54.038;11.684;2023-05-01T04:37:05;101738.97;;;0.10;86.46
7297;BME280;40758;54.038;11.684;2023-05-01T04:39:34;101745.09;;;0.43;86.72
7297;BME280;40758;54.038;11.684;2023-05-01T04:42:03;101757.47;;;0.65;85.99
7297;BME280;40758;54.038;11.684;2023-05-01T04:44:31;101756.94;;;0.71;85.99
7297;BME280;40758;54.038;11.684;2023-05-01T04:47:04;101747.66;;;0.75;85.34
7297;BME280;40758;54.038;11.684;2023-05-01T04:49:33;101732.66;;;0.84;85.15
7297;BME280;40758;54.038;11.684;2023-05-01T04:52:00;101737.97;;;1.04;85.05
7297;BME280;40758;54.038;11.684;2023-05-01T04:54:26;101744.56;;;1.41;84.94
7297;BME280;40758;54.038;11.684;2023-05-01T04:56:53;101727.81;;;1.68;85.43
7297;BME280;40758;54.038;11.684;2023-05-01T04:59:20;101724.03;;;1.99;84.98
7297;BME280;40758;54.038;11.684;2023-05-01T05:01:47;101729.63;;;2.25;83.99
7297;BME280;40758;54.038;11.684;2023-05-01T05:04:13;101729.75;;;2.43;83.61
7297;BME280;40758;54.038;11.684;2023-05-01T05:06:40;101729.13;;;2.69;83.74
7297;BME280;40758;54.038;11.684;2023-05-01T05:09:08;101710.53;;;2.67;83.33
7297;BME280;40758;54.038;11.684;2023-05-01T05:11:34;101722.09;;;2.95;83.00
7297;BME280;40758;54.038;11.684;2023-05-01T05:14:01;101721.31;;;3.12;83.36
7297;BME280;40758;54.038;11.684;2023-05-01T05:16:28;101717.44;;;3.52;83.12
7297;BME280;40758;54.038;11.684;2023-05-01T05:18:55;101720.13;;;3.88;82.33
7297;BME280;40758;54.038;11.684;2023-05-01T05:21:23;101712.63;;;3.91;82.19
7297;BME280;40758;54.038;11.684;2023-05-01T05:23:49;101719.06;;;3.98;82.01
7297;BME280;40758;54.038;11.684;2023-05-01T05:26:16;101689.09;;;3.93;81.92
7297;BME280;40758;54.038;11.684;2023-05-01T05:28:43;101701.84;;;4.53;82.08
7297;BME280;40758;54.038;11.684;2023-05-01T05:31:11;101707.31;;;5.46;80.91
7297;BME280;40758;54.038;11.684;2023-05-01T05:33:38;101690.38;;;6.19;79.50
7297;BME280;40758;54.038;11.684;2023-05-01T05:36:05;101698.06;;;6.79;78.51
7297;BME280;40758;54.038;11.684;2023-05-01T05:38:33;101693.50;;;7.18;76.20
7297;BME280;40758;54.038;11.684;2023-05-01T05:41:00;101685.44;;;7.41;75.26
7297;BME280;40758;54.038;11.684;2023-05-01T05:43:27;101685.00;;;7.30;73.43
7297;BME280;40758;54.038;11.684;2023-05-01T05:45:57;101701.81;;;7.48;73.28
7297;BME280;40758;54.038;11.684;2023-05-01T05:48:24;101690.28;;;7.54;72.92
7297;BME280;40758;54.038;11.684;2023-05-01T05:50:51;101692.44;;;7.82;72.24
7297;BME280;40758;54.038;11.684;2023-05-01T05:53:21;101681.16;;;8.01;71.52
7297;BME280;40758;54.038;11.684;2023-05-01T05:55:51;101676.28;;;8.19;70.40
7297;BME280;40758;54.038;11.684;2023-05-01T05:58:18;101688.78;;;8.88;70.60
7297;BME280;40758;54.038;11.684;2023-05-01T06:00:50;101692.75;;;9.21;68.74
7297;BME280;40758;54.038;11.684;2023-05-01T06:03:18;101683.13;;;9.70;68.69
7297;BME280;40758;54.038;11.684;2023-05-01T06:05:45;101681.16;;;9.27;66.19
7297;BME280;40758;54.038;11.684;2023-05-01T06:08:13;101683.09;;;9.48;64.87
7297;BME280;40758;54.038;11.684;2023-05-01T06:10:41;101682.28;;;9.91;64.94
7297;BME280;40758;54.038;11.684;2023-05-01T06:13:09;101675.97;;;10.26;64.38
7297;BME280;40758;54.038;11.684;2023-05-01T06:15:40;101676.41;;;10.92;64.24
7297;BME280;40758;54.038;11.684;2023-05-01T06:18:07;101674.84;;;11.25;62.90
7297;BME280;40758;54.038;11.684;2023-05-01T06:20:35;101680.94;;;11.27;60.34
7297;BME280;40758;54.038;11.684;2023-05-01T06:23:02;101687.03;;;10.59;59.27
7297;BME280;40758;54.038;11.684;2023-05-01T06:25:29;101687.03;;;10.87;59.44
7297;BME280;40758;54.038;11.684;2023-05-01T06:27:56;101677.19;;;11.28;59.43
7297;BME280;40758;54.038;11.684;2023-05-01T06:30:23;101677.81;;;10.88;57.14
7297;BME280;40758;54.038;11.684;2023-05-01T06:32:49;101671.56;;;10.88;57.40
7297;BME280;40758;54.038;11.684;2023-05-01T06:35:17;101677.97;;;10.74;57.54
7297;BME280;40758;54.038;11.684;2023-05-01T06:37:44;101671.59;;;10.60;56.84
7297;BME280;40758;54.038;11.684;2023-05-01T06:40:11;101678.09;;;11.00;56.98
7297;BME280;40758;54.038;11.684;2023-05-01T06:42:38;101672.09;;;11.72;56.01
7297;BME280;40758;54.038;11.684;2023-05-01T06:45:06;101658.13;;;11.89;54.01
7297;BME280;40758;54.038;11.684;2023-05-01T06:47:33;101667.56;;;12.26;53.85
7297;BME280;40758;54.038;11.684;2023-05-01T06:50:00;101655.75;;;12.78;53.50
7297;BME280;40758;54.038;11.684;2023-05-01T06:52:31;101647.13;;;12.88;52.32
7297;BME280;40758;54.038;11.684;2023-05-01T06:54:57;101654.78;;;13.18;51.51
7297;BME280;40758;54.038;11.684;2023-05-01T06:57:24;101642.00;;;13.56;51.03
7297;BME280;40758;54.038;11.684;2023-05-01T06:59:51;101621.63;;;13.59;49.99
7297;BME280;40758;54.038;11.684;2023-05-01T07:02:18;101648.56;;;13.49;49.25
7297;BME280;40758;54.038;11.684;2023-05-01T07:04:45;101637.31;;;13.32;48.47
7297;BME280;40758;54.038;11.684;2023-05-01T07:07:11;101635.63;;;13.69;48.74
7297;BME280;40758;54.038;11.684;2023-05-01T07:09:39;101637.63;;;13.49;46.96
7297;BME280;40758;54.038;11.684;2023-05-01T07:12:06;101649.25;;;13.38;46.41
7297;BME280;40758;54.038;11.684;2023-05-01T07:14:34;101613.75;;;13.76;46.84
7297;BME280;40758;54.038;11.684;2023-05-01T07:17:02;101626.63;;;13.62;45.49
7297;BME280;40758;54.038;11.684;2023-05-01T07:19:29;101638.09;;;13.39;46.31
7297;BME280;40758;54.038;11.684;2023-05-01T07:21:55;101624.50;;;13.96;45.67
7297;BME280;40758;54.038;11.684;2023-05-01T07:24:22;101626.47;;;14.38;45.13
7297;BME280;40758;54.038;11.684;2023-05-01T07:26:49;101626.28;;;14.77;44.14
7297;BME280;40758;54.038;11.684;2023-05-01T07:29:17;101614.28;;;14.78;43.71
7297;BME280;40758;54.038;11.684;2023-05-01T07:31:44;101624.09;;;14.42;42.74
7297;BME280;40758;54.038;11.684;2023-05-01T07:34:13;101608.16;;;14.39;42.80
7297;BME280;40758;54.038;11.684;2023-05-01T07:36:40;101610.34;;;14.30;42.56
7297;BME280;40758;54.038;11.684;2023-05-01T07:39:07;101593.94;;;14.55;42.33
7297;BME280;40758;54.038;11.684;2023-05-01T07:41:35;101594.34;;;14.34;42.11
7297;BME280;40758;54.038;11.684;2023-05-01T07:44:02;101592.31;;;14.04;42.46
7297;BME280;40758;54.038;11.684;2023-05-01T07:46:32;101587.94;;;13.97;41.90
7297;BME280;40758;54.038;11.684;2023-05-01T07:49:00;101584.19;;;13.41;41.19
7297;BME280;40758;54.038;11.684;2023-05-01T07:51:27;101583.44;;;13.84;43.01
7297;BME280;40758;54.038;11.684;2023-05-01T07:53:54;101568.88;;;13.40;42.47
7297;BME280;40758;54.038;11.684;2023-05-01T07:56:21;101571.25;;;13.30;41.75
7297;BME280;40758;54.038;11.684;2023-05-01T07:58:49;101570.75;;;13.71;42.45
7297;BME280;40758;54.038;11.684;2023-05-01T08:01:15;101561.16;;;14.30;42.13
7297;BME280;40758;54.038;11.684;2023-05-01T08:03:42;101562.81;;;14.75;41.29
7297;BME280;40758;54.038;11.684;2023-05-01T08:06:09;101562.44;;;15.01;40.28
7297;BME280;40758;54.038;11.684;2023-05-01T08:08:36;101554.75;;;15.40;40.81
7297;BME280;40758;54.038;11.684;2023-05-01T08:11:02;101547.81;;;15.26;39.60
7297;BME280;40758;54.038;11.684;2023-05-01T08:13:29;101553.91;;;14.79;39.81
7297;BME280;40758;54.038;11.684;2023-05-01T08:16:00;101544.47;;;15.24;39.50
7297;BME280;40758;54.038;11.684;2023-05-01T08:18:28;101552.28;;;15.08;38.25
7297;BME280;40758;54.038;11.684;2023-05-01T08:20:55;101547.28;;;15.47;38.57
7297;BME280;40758;54.038;11.684;2023-05-01T08:23:23;101545.22;;;15.73;38.04
7297;BME280;40758;54.038;11.684;2023-05-01T08:25:51;101541.41;;;15.74;37.99
7297;BME280;40758;54.038;11.684;2023-05-01T08:28:18;101545.69;;;15.93;38.20
7297;BME280;40758;54.038;11.684;2023-05-01T08:30:48;101550.09;;;15.70;37.00
7297;BME280;40758;54.038;11.684;2023-05-01T08:33:15;101536.25;;;15.24;38.26
7297;BME280;40758;54.038;11.684;2023-05-01T08:35:42;101517.34;;;15.76;37.35
7297;BME280;40758;54.038;11.684;2023-05-01T08:38:10;101553.75;;;15.23;36.09
7297;BME280;40758;54.038;11.684;2023-05-01T08:40:37;101533.56;;;15.35;36.99
7297;BME280;40758;54.038;11.684;2023-05-01T08:43:05;101545.75;;;15.51;38.27
7297;BME280;40758;54.038;11.684;2023-05-01T08:45:32;101537.75;;;16.03;37.20
7297;BME280;40758;54.038;11.684;2023-05-01T08:48:08;101529.56;;;16.55;36.52
7297;BME280;40758;54.038;11.684;2023-05-01T08:50:38;101530.28;;;16.50;35.05
7297;BME280;40758;54.038;11.684;2023-05-01T08:53:07;101527.63;;;16.79;35.12
7297;BME280;40758;54.038;11.684;2023-05-01T08:55:37;101544.34;;;16.78;34.16
7297;BME280;40758;54.038;11.684;2023-05-01T08:58:06;101513.72;;;16.57;33.40
7297;BME280;40758;54.038;11.684;2023-05-01T09:00:36;101521.63;;;16.42;33.60
7297;BME280;40758;54.038;11.684;2023-05-01T09:03:05;101511.69;;;16.64;33.20
7297;BME280;40758;54.038;11.684;2023-05-01T09:05:32;101524.34;;;16.54;31.68
7297;BME280;40758;54.038;11.684;2023-05-01T09:07:59;101515.34;;;16.18;33.05
7297;BME280;40758;54.038;11.684;2023-05-01T09:10:26;101511.97;;;16.39;32.89
7297;BME280;40758;54.038;11.684;2023-05-01T09:12:55;101501.03;;;17.08;33.56
7297;BME280;40758;54.038;11.684;2023-05-01T09:15:27;101516.56;;;17.48;32.92
7297;BME280;40758;54.038;11.684;2023-05-01T09:17:55;101509.19;;;17.20;31.44
7297;BME280;40758;54.038;11.684;2023-05-01T09:20:23;101502.44;;;16.42;30.66
7297;BME280;40758;54.038;11.684;2023-05-01T09:22:49;101501.25;;;16.38;31.72
7297;BME280;40758;54.038;11.684;2023-05-01T09:25:16;101503.03;;;16.44;31.30
7297;BME280;40758;54.038;11.684;2023-05-01T09:27:44;101498.44;;;16.61;32.25
7297;BME280;40758;54.038;11.684;2023-05-01T09:30:35;101496.28;;;16.63;31.92
7297;BME280;40758;54.038;11.684;2023-05-01T09:33:13;101503.78;;;16.80;32.35
7297;BME280;40758;54.038;11.684;2023-05-01T09:35:53;101489.75;;;16.64;32.79
7297;BME280;40758;54.038;11.684;2023-05-01T09:38:22;101479.78;;;17.32;33.27
7297;BME280;40758;54.038;11.684;2023-05-01T09:40:53;101488.44;;;17.58;32.14
7297;BME280;40758;54.038;11.684;2023-05-01T09:43:26;101481.88;;;16.96;31.13
7297;BME280;40758;54.038;11.684;2023-05-01T09:48:26;101464.56;;;17.58;32.03
7297;BME280;40758;54.038;11.684;2023-05-01T09:50:53;101462.66;;;17.59;31.08
7297;BME280;40758;54.038;11.684;2023-05-01T09:53:35;101454.50;;;17.47;31.21
7297;BME280;40758;54.038;11.684;2023-05-01T09:56:03;101462.22;;;17.50;31.23
7297;BME280;40758;54.038;11.684;2023-05-01T09:58:30;101459.91;;;17.59;31.49
7297;BME280;40758;54.038;11.684;2023-05-01T10:00:56;101449.97;;;17.07;30.55
7297;BME280;40758;54.038;11.684;2023-05-01T10:03:23;101457.78;;;17.15;31.31
7297;BME280;40758;54.038;11.684;2023-05-01T10:05:50;101440.34;;;17.21;31.97
7297;BME280;40758;54.038;11.684;2023-05-01T10:08:17;101448.09;;;17.41;31.56
7297;BME280;40758;54.038;11.684;2023-05-01T10:10:58;101445.34;;;17.92;31.30
7297;BME280;40758;54.038;11.684;2023-05-01T10:13:25;101444.75;;;17.73;29.87
7297;BME280;40758;54.038;11.684;2023-05-01T10:15:52;101458.25;;;17.41;29.40
7297;BME280;40758;54.038;11.684;2023-05-01T10:18:19;101442.34;;;17.60;30.31
7297;BME280;40758;54.038;11.684;2023-05-01T10:20:48;101440.41;;;18.38;30.88
7297;BME280;40758;54.038;11.684;2023-05-01T10:23:14;101435.31;;;18.46;29.41
7297;BME280;40758;54.038;11.684;2023-05-01T10:25:43;101432.75;;;18.40;29.21
7297;BME280;40758;54.038;11.684;2023-05-01T10:28:11;101426.53;;;18.49;28.90
7297;BME280;40758;54.038;11.684;2023-05-01T10:30:40;101424.78;;;17.44;28.09
7297;BME280;40758;54.038;11.684;2023-05-01T10:33:06;101436.56;;;16.37;28.96
7297;BME280;40758;54.038;11.684;2023-05-01T10:35:36;101440.06;;;16.89;29.34
7297;BME280;40758;54.038;11.684;2023-05-01T10:38:10;101412.56;;;17.18;29.38
7297;BME280;40758;54.038;11.684;2023-05-01T10:43:12;101414.81;;;17.54;30.02
7297;BME280;40758;54.038;11.684;2023-05-01T10:45:41;101403.25;;;17.52;29.51
7297;BME280;40758;54.038;11.684;2023-05-01T10:48:07;101407.06;;;18.07;30.34
7297;BME280;40758;54.038;11.684;2023-05-01T10:53:40;101393.06;;;18.08;28.42
7297;BME280;40758;54.038;11.684;2023-05-01T11:01:28;101387.69;;;17.97;28.39
7297;BME280;40758;54.038;11.684;2023-05-01T11:03:56;101385.28;;;18.22;28.67
7297;BME280;40758;54.038;11.684;2023-05-01T11:06:24;101377.97;;;18.11;28.23
7297;BME280;40758;54.038;11.684;2023-05-01T11:08:52;101368.03;;;18.05;27.88
7297;BME280;40758;54.038;11.684;2023-05-01T11:14:08;101366.47;;;18.14;27.78
7297;BME280;40758;54.038;11.684;2023-05-01T11:19:07;101355.16;;;18.32;27.56
7297;BME280;40758;54.038;11.684;2023-05-01T11:21:37;101370.03;;;18.37;27.26
7297;BME280;40758;54.038;11.684;2023-05-01T11:24:09;101375.97;;;17.85;25.85
7297;BME280;40758;54.038;11.684;2023-05-01T11:26:38;101343.06;;;17.51;26.04
7297;BME280;40758;54.038;11.684;2023-05-01T11:29:07;101354.03;;;17.68;26.51
7297;BME280;40758;54.038;11.684;2023-05-01T11:31:36;101346.19;;;18.20;27.23
7297;BME280;40758;54.038;11.684;2023-05-01T11:34:04;101347.31;;;18.46;27.15
7297;BME280;40758;54.038;11.684;2023-05-01T11:36:48;101344.03;;;18.49;26.18
7297;BME280;40758;54.038;11.684;2023-05-01T11:39:15;101343.78;;;18.24;25.51
7297;BME280;40758;54.038;11.684;2023-05-01T11:41:45;101329.66;;;18.15;25.75
7297;BME280;40758;54.038;11.684;2023-05-01T11:44:15;101328.31;;;17.96;25.48
7297;BME280;40758;54.038;11.684;2023-05-01T11:46:42;101323.09;;;17.72;25.97
7297;BME280;40758;54.038;11.684;2023-05-01T11:49:10;101331.31;;;17.72;26.43
7297;BME280;40758;54.038;11.684;2023-05-01T11:51:37;101322.13;;;17.84;26.17
7297;BME280;40758;54.038;11.684;2023-05-01T11:54:09;101338.34;;;17.85;25.63
7297;BME280;40758;54.038;11.684;2023-05-01T11:56:41;101328.38;;;18.01;26.00
7297;BME280;40758;54.038;11.684;2023-05-01T11:59:12;101327.22;;;17.97;24.89
7297;BME280;40758;54.038;11.684;2023-05-01T12:01:43;101309.41;;;18.21;24.72
7297;BME280;40758;54.038;11.684;2023-05-01T12:04:11;101295.53;;;18.11;24.85
7297;BME280;40758;54.038;11.684;2023-05-01T12:06:41;101309.75;;;18.57;25.76
7297;BME280;40758;54.038;11.684;2023-05-01T12:09:23;101306.50;;;18.65;25.33
7297;BME280;40758;54.038;11.684;2023-05-01T12:11:52;101295.50;;;18.65;25.64
7297;BME280;40758;54.038;11.684;2023-05-01T12:14:20;101293.97;;;18.20;25.45
7297;BME280;40758;54.038;11.684;2023-05-01T12:16:47;101290.88;;;18.39;26.36
7297;BME280;40758;54.038;11.684;2023-05-01T12:19:15;101286.81;;;18.46;25.77
7297;BME280;40758;54.038;11.684;2023-05-01T12:21:42;101268.22;;;18.85;25.80
7297;BME280;40758;54.038;11.684;2023-05-01T12:24:11;101286.09;;;19.30;25.87
7297;BME280;40758;54.038;11.684;2023-05-01T12:26:41;101285.63;;;18.96;24.33
7297;BME280;40758;54.038;11.684;2023-05-01T12:29:10;101288.88;;;18.61;24.56
7297;BME280;40758;54.038;11.684;2023-05-01T12:31:45;101264.13;;;18.61;24.97
7297;BME280;40758;54.038;11.684;2023-05-01T12:34:12;101266.56;;;18.84;25.04
7297;BME280;40758;54.038;11.684;2023-05-01T12:36:40;101265.09;;;18.77;24.78
7297;BME280;40758;54.038;11.684;2023-05-01T12:39:11;101265.31;;;19.02;24.65
7297;BME280;40758;54.038;11.684;2023-05-01T12:41:41;101266.09;;;18.98;24.75
7297;BME280;40758;54.038;11.684;2023-05-01T12:44:24;101258.88;;;18.27;24.79
7297;BME280;40758;54.038;11.684;2023-05-01T12:47:01;101257.06;;;18.11;25.94
7297;BME280;40758;54.038;11.684;2023-05-01T12:49:29;101253.16;;;18.66;25.85
7297;BME280;40758;54.038;11.684;2023-05-01T12:51:58;101248.84;;;19.12;25.62
7297;BME280;40758;54.038;11.684;2023-05-01T12:54:30;101238.72;;;19.23;24.96
7297;BME280;40758;54.038;11.684;2023-05-01T12:57:23;101245.03;;;18.17;24.25
7297;BME280;40758;54.038;11.684;2023-05-01T12:59:57;101229.09;;;18.19;24.90
7297;BME280;40758;54.038;11.684;2023-05-01T13:02:32;101235.50;;;18.57;25.41
7297;BME280;40758;54.038;11.684;2023-05-01T13:05:10;101246.13;;;18.75;24.70
7297;BME280;40758;54.038;11.684;2023-05-01T13:07:37;101232.88;;;18.72;24.29
7297;BME280;40758;54.038;11.684;2023-05-01T13:10:06;101230.03;;;18.62;24.09
7297;BME280;40758;54.038;11.684;2023-05-01T13:12:43;101235.94;;;18.76;24.16
7297;BME280;40758;54.038;11.684;2023-05-01T13:15:22;101230.50;;;19.28;24.59
7297;BME280;40758;54.038;11.684;2023-05-01T13:17:49;101220.16;;;19.56;24.16
7297;BME280;40758;54.038;11.684;2023-05-01T13:20:24;101217.34;;;19.46;23.93
7297;BME280;40758;54.038;11.684;2023-05-01T13:22:52;101226.81;;;18.70;24.30
7297;BME280;40758;54.038;11.684;2023-05-01T13:25:19;101225.72;;;18.71;24.21
7297;BME280;40758;54.038;11.684;2023-05-01T13:27:48;101224.78;;;18.55;24.03
7297;BME280;40758;54.038;11.684;2023-05-01T13:30:17;101216.81;;;18.59;24.21
7297;BME280;40758;54.038;11.684;2023-05-01T13:32:47;101214.97;;;19.12;24.62
7297;BME280;40758;54.038;11.684;2023-05-01T13:35:24;101210.31;;;18.70;23.72
7297;BME280;40758;54.038;11.684;2023-05-01T13:37:52;101217.03;;;18.90;24.55
7297;BME280;40758;54.038;11.684;2023-05-01T13:40:19;101224.84;;;19.03;23.88